sensor_id;sensor_type;location;lat;lon;timestamp;P1;durP1;ratioP1;P2;durP2;ratioP2
66663;SDS011;59683;51.428;-1.994;2023-11-19T00:00:21;37.90;;;5.53;;
66663;SDS011;59683;51.428;-1.994;2023-11-19T00:02:46;41.03;;;6.33;;
66663;SDS011;59683;51.428;-1.994;2023-11-19T00:05:12;32.50;;;6.53;;
66663;SDS011;59683;51.428;-1.994;2023-11-19T00:07:38;40.70;;;7.13;;
66663;SDS011;59683;51.428;-1.994;2023-11-19T00:10:10;37.70;;;5.63;;
66663;SDS011;59683;51.428;-1.994;2023-11-19T00:12:41;33.60;;;5.95;;
66663;SDS011;59683;51.428;-1.994;2023-11-19T00:15:08;38.17;;;5.72;;
66663;SDS011;59683;51.428;-1.994;2023-11-19T00:17:39;32.03;;;5.07;;
66663;SDS011;59683;51.428;-1.994;2023-11-19T00:20:14;31.27;;;5.03;;
66663;SDS011;59683;51.428;-1.994;2023-11-19T00:22:41;41.37;;;6.50;;
66663;SDS011;59683;51.428;-1.994;2023-11-19T00:25:08;30.13;;;3.97;;
66663;SDS011;59683;51.428;-1.994;2023-11-19T00:27:34;28.43;;;5.13;;
66663;SDS011;59683;51.428;-1.994;2023-11-19T00:29:59;41.20;;;6.20;;
66663;SDS011;59683;51.428;-1.994;2023-11-19T00:32:25;31.60;;;4.70;;
66663;SDS011;59683;51.428;-1.994;2023-11-19T00:34:50;31.13;;;4.47;;
66663;SDS011;59683;51.428;-1.994;2023-11-19T00:37:16;39.60;;;5.30;;
66663;SDS011;59683;51.428;-1.994;2023-11-19T00:39:42;37.93;;;4.73;;
66663;SDS011;59683;51.428;-1.994;2023-11-19T00:42:08;34.97;;;6.53;;
66663;SDS011;59683;51.428;-1.994;2023-11-19T00:44:35;33.70;;;5.70;;
66663;SDS011;59683;51.428;-1.994;2023-11-19T00:47:01;39.17;;;6.50;;
66663;SDS011;59683;51.428;-1.994;2023-11-19T00:49:26;44.80;;;6.63;;
66663;SDS011;59683;51.428;-1.994;2023-11-19T00:51:52;40.10;;;5.60;;
66663;SDS011;59683;51.428;-1.994;2023-11-19T00:54:17;40.57;;;5.47;;
66663;SDS011;59683;51.428;-1.994;2023-11-19T00:56:43;44.63;;;5.70;;
66663;SDS011;59683;51.428;-1.994;2023-11-19T00:59:09;37.10;;;6.33;;
66663;SDS011;59683;51.428;-1.994;2023-11-19T01:01:35;42.17;;;4.97;;
66663;SDS011;59683;51.428;-1.994;2023-11-19T01:04:00;38.67;;;5.80;;
66663;SDS011;59683;51.428;-1.994;2023-11-19T01:06:29;36.50;;;5.63;;
66663;SDS011;59683;51.428;-1.994;2023-11-19T01:08:55;37.58;;;4.80;;
66663;SDS011;59683;51.428;-1.994;2023-11-19T01:11:22;41.23;;;5.83;;
66663;SDS011;59683;51.428;-1.994;2023-11-19T01:13:48;39.87;;;6.03;;
66663;SDS011;59683;51.428;-1.994;2023-11-19T01:16:14;39.73;;;4.80;;
66663;SDS011;59683;51.428;-1.994;2023-11-19T01:18:39;39.33;;;6.60;;
66663;SDS011;59683;51.428;-1.994;2023-11-19T01:21:05;29.83;;;5.23;;
66663;SDS011;59683;51.428;-1.994;2023-11-19T01:23:30;40.10;;;6.07;;
66663;SDS011;59683;51.428;-1.994;2023-11-19T01:25:56;32.20;;;5.17;;
66663;SDS011;59683;51.428;-1.994;2023-11-19T01:28:21;35.77;;;6.03;;
66663;SDS011;59683;51.428;-1.994;2023-11-19T01:30:46;41.33;;;5.67;;
66663;SDS011;59683;51.428;-1.994;2023-11-19T01:33:15;29.37;;;5.40;;
66663;SDS011;59683;51.428;-1.994;2023-11-19T01:35:40;31.10;;;5.70;;
66663;SDS011;59683;51.428;-1.994;2023-11-19T01:38:06;28.67;;;4.00;;
66663;SDS011;59683;51.428;-1.994;2023-11-19T01:40:33;39.70;;;5.57;;
66663;SDS011;59683;51.428;-1.994;2023-11-19T01:42:59;31.13;;;5.70;;
66663;SDS011;59683;51.428;-1.994;2023-11-19T01:45:27;33.40;;;5.00;;
66663;SDS011;59683;51.428;-1.994;2023-11-19T01:47:54;40.87;;;9.13;;
66663;SDS011;59683;51.428;-1.994;2023-11-19T01:50:20;44.53;;;6.50;;
66663;SDS011;59683;51.428;-1.994;2023-11-19T01:52:47;30.67;;;6.23;;
66663;SDS011;59683;51.428;-1.994;2023-11-19T01:55:13;28.97;;;7.80;;
66663;SDS011;59683;51.428;-1.994;2023-11-19T01:57:39;37.30;;;5.17;;
66663;SDS011;59683;51.428;-1.994;2023-11-19T02:00:06;34.47;;;5.80;;
66663;SDS011;59683;51.428;-1.994;2023-11-19T02:02:36;27.92;;;4.70;;
66663;SDS011;59683;51.428;-1.994;2023-11-19T02:05:02;38.53;;;7.03;;
66663;SDS011;59683;51.428;-1.994;2023-11-19T02:07:28;27.43;;;4.63;;
66663;SDS011;59683;51.428;-1.994;2023-11-19T02:09:54;31.10;;;4.80;;
66663;SDS011;59683;51.428;-1.994;2023-11-19T02:12:19;26.27;;;4.67;;
66663;SDS011;59683;51.428;-1.994;2023-11-19T02:14:45;29.77;;;5.30;;
66663;SDS011;59683;51.428;-1.994;2023-11-19T02:17:26;37.87;;;6.07;;
66663;SDS011;59683;51.428;-1.994;2023-11-19T02:19:53;31.57;;;4.47;;
66663;SDS011;59683;51.428;-1.994;2023-11-19T02:22:18;31.30;;;5.27;;
66663;SDS011;59683;51.428;-1.994;2023-11-19T02:24:45;34.60;;;4.60;;
66663;SDS011;59683;51.428;-1.994;2023-11-19T02:27:16;38.33;;;4.87;;
66663;SDS011;59683;51.428;-1.994;2023-11-19T02:29:55;40.97;;;6.57;;
66663;SDS011;59683;51.428;-1.994;2023-11-19T02:32:22;32.13;;;4.50;;
66663;SDS011;59683;51.428;-1.994;2023-11-19T02:34:48;34.60;;;4.90;;
66663;SDS011;59683;51.428;-1.994;2023-11-19T02:37:13;31.53;;;5.17;;
66663;SDS011;59683;51.428;-1.994;2023-11-19T02:39:40;30.57;;;4.10;;
66663;SDS011;59683;51.428;-1.994;2023-11-19T02:42:06;33.13;;;4.93;;
66663;SDS011;59683;51.428;-1.994;2023-11-19T02:44:33;24.53;;;5.13;;
66663;SDS011;59683;51.428;-1.994;2023-11-19T02:46:59;29.13;;;4.20;;
66663;SDS011;59683;51.428;-1.994;2023-11-19T02:49:25;30.07;;;4.10;;
66663;SDS011;59683;51.428;-1.994;2023-11-19T02:51:50;28.47;;;4.70;;
66663;SDS011;59683;51.428;-1.994;2023-11-19T02:54:16;30.23;;;5.23;;
66663;SDS011;59683;51.428;-1.994;2023-11-19T02:56:44;29.70;;;4.77;;
66663;SDS011;59683;51.428;-1.994;2023-11-19T02:59:13;29.50;;;5.03;;
66663;SDS011;59683;51.428;-1.994;2023-11-19T03:01:52;24.07;;;3.77;;
66663;SDS011;59683;51.428;-1.994;2023-11-19T03:04:18;28.43;;;4.23;;
66663;SDS011;59683;51.428;-1.994;2023-11-19T03:06:45;35.87;;;4.37;;
66663;SDS011;59683;51.428;-1.994;2023-11-19T03:09:10;37.03;;;5.67;;
66663;SDS011;59683;51.428;-1.994;2023-11-19T03:11:36;27.63;;;5.20;;
66663;SDS011;59683;51.428;-1.994;2023-11-19T03:14:02;22.87;;;4.93;;
66663;SDS011;59683;51.428;-1.994;2023-11-19T03:16:30;24.67;;;4.70;;
66663;SDS011;59683;51.428;-1.994;2023-11-19T03:18:55;25.53;;;3.53;;
66663;SDS011;59683;51.428;-1.994;2023-11-19T03:21:28;28.13;;;5.20;;
66663;SDS011;59683;51.428;-1.994;2023-11-19T03:23:54;28.47;;;4.47;;
66663;SDS011;59683;51.428;-1.994;2023-11-19T03:26:19;27.20;;;5.70;;
66663;SDS011;59683;51.428;-1.994;2023-11-19T03:28:45;28.30;;;4.40;;
66663;SDS011;59683;51.428;-1.994;2023-11-19T03:31:10;32.60;;;3.80;;
66663;SDS011;59683;51.428;-1.994;2023-11-19T03:33:35;26.33;;;4.70;;
66663;SDS011;59683;51.428;-1.994;2023-11-19T03:36:02;26.57;;;3.70;;
66663;SDS011;59683;51.428;-1.994;2023-11-19T03:38:28;25.57;;;4.47;;
66663;SDS011;59683;51.428;-1.994;2023-11-19T03:40:53;32.53;;;4.13;;
66663;SDS011;59683;51.428;-1.994;2023-11-19T03:43:18;20.80;;;3.20;;
66663;SDS011;59683;51.428;-1.994;2023-11-19T03:45:44;29.67;;;4.80;;
66663;SDS011;59683;51.428;-1.994;2023-11-19T03:48:09;25.70;;;5.73;;
66663;SDS011;59683;51.428;-1.994;2023-11-19T03:50:35;28.20;;;5.03;;
66663;SDS011;59683;51.428;-1.994;2023-11-19T03:53:00;32.13;;;4.47;;
66663;SDS011;59683;51.428;-1.994;2023-11-19T03:55:25;28.60;;;4.67;;
66663;SDS011;59683;51.428;-1.994;2023-11-19T03:57:51;19.60;;;3.80;;
66663;SDS011;59683;51.428;-1.994;2023-11-19T04:00:17;31.07;;;4.43;;
66663;SDS011;59683;51.428;-1.994;2023-11-19T04:02:42;27.50;;;3.63;;
66663;SDS011;59683;51.428;-1.994;2023-11-19T04:05:08;26.20;;;4.03;;
66663;SDS011;59683;51.428;-1.994;2023-11-19T04:07:34;24.77;;;3.27;;
66663;SDS011;59683;51.428;-1.994;2023-11-19T04:10:00;24.70;;;3.93;;
66663;SDS011;59683;51.428;-1.994;2023-11-19T04:12:25;34.77;;;4.53;;
66663;SDS011;59683;51.428;-1.994;2023-11-19T04:14:51;23.57;;;5.00;;
66663;SDS011;59683;51.428;-1.994;2023-11-19T04:17:16;38.70;;;5.77;;
66663;SDS011;59683;51.428;-1.994;2023-11-19T04:19:41;25.10;;;3.30;;
66663;SDS011;59683;51.428;-1.994;2023-11-19T04:22:08;30.97;;;3.80;;
66663;SDS011;59683;51.428;-1.994;2023-11-19T04:24:34;23.27;;;3.60;;
66663;SDS011;59683;51.428;-1.994;2023-11-19T04:27:00;27.83;;;4.93;;
66663;SDS011;59683;51.428;-1.994;2023-11-19T04:29:25;23.80;;;3.37;;
66663;SDS011;59683;51.428;-1.994;2023-11-19T04:31:50;26.30;;;3.60;;
66663;SDS011;59683;51.428;-1.994;2023-11-19T04:34:16;34.03;;;3.67;;
66663;SDS011;59683;51.428;-1.994;2023-11-19T04:36:41;28.20;;;4.20;;
66663;SDS011;59683;51.428;-1.994;2023-11-19T04:39:08;19.27;;;2.97;;
66663;SDS011;59683;51.428;-1.994;2023-11-19T04:41:45;30.07;;;4.10;;
66663;SDS011;59683;51.428;-1.994;2023-11-19T04:44:12;31.70;;;3.83;;
66663;SDS011;59683;51.428;-1.994;2023-11-19T04:46:37;34.30;;;3.33;;
66663;SDS011;59683;51.428;-1.994;2023-11-19T04:49:02;29.77;;;4.53;;
66663;SDS011;59683;51.428;-1.994;2023-11-19T04:51:28;25.00;;;2.60;;
66663;SDS011;59683;51.428;-1.994;2023-11-19T04:53:54;25.60;;;4.37;;
66663;SDS011;59683;51.428;-1.994;2023-11-19T04:56:19;29.37;;;3.47;;
66663;SDS011;59683;51.428;-1.994;2023-11-19T04:58:47;25.73;;;3.43;;
66663;SDS011;59683;51.428;-1.994;2023-11-19T05:01:15;31.53;;;4.40;;
66663;SDS011;59683;51.428;-1.994;2023-11-19T05:03:41;27.47;;;3.33;;
66663;SDS011;59683;51.428;-1.994;2023-11-19T05:06:07;31.67;;;5.57;;
66663;SDS011;59683;51.428;-1.994;2023-11-19T05:08:32;27.07;;;4.07;;
66663;SDS011;59683;51.428;-1.994;2023-11-19T05:10:58;25.00;;;3.87;;
66663;SDS011;59683;51.428;-1.994;2023-11-19T05:13:24;26.17;;;4.27;;
66663;SDS011;59683;51.428;-1.994;2023-11-19T05:15:49;46.07;;;5.27;;
66663;SDS011;59683;51.428;-1.994;2023-11-19T05:18:15;39.13;;;4.63;;
66663;SDS011;59683;51.428;-1.994;2023-11-19T05:20:40;35.83;;;5.37;;
66663;SDS011;59683;51.428;-1.994;2023-11-19T05:23:05;29.63;;;3.70;;
66663;SDS011;59683;51.428;-1.994;2023-11-19T05:25:31;26.33;;;4.37;;
66663;SDS011;59683;51.428;-1.994;2023-11-19T05:27:56;28.30;;;3.30;;
66663;SDS011;59683;51.428;-1.994;2023-11-19T05:30:21;32.33;;;3.67;;
66663;SDS011;59683;51.428;-1.994;2023-11-19T05:32:47;37.30;;;4.67;;
66663;SDS011;59683;51.428;-1.994;2023-11-19T05:35:13;32.43;;;4.67;;
66663;SDS011;59683;51.428;-1.994;2023-11-19T05:37:38;32.27;;;4.67;;
66663;SDS011;59683;51.428;-1.994;2023-11-19T05:40:05;29.53;;;3.97;;
66663;SDS011;59683;51.428;-1.994;2023-11-19T05:42:39;34.43;;;5.80;;
66663;SDS011;59683;51.428;-1.994;2023-11-19T05:45:05;34.40;;;4.63;;
66663;SDS011;59683;51.428;-1.994;2023-11-19T05:47:32;41.47;;;5.07;;
66663;SDS011;59683;51.428;-1.994;2023-11-19T05:49:58;27.97;;;4.80;;
66663;SDS011;59683;51.428;-1.994;2023-11-19T05:52:23;29.70;;;5.20;;
66663;SDS011;59683;51.428;-1.994;2023-11-19T05:54:48;32.43;;;4.07;;
66663;SDS011;59683;51.428;-1.994;2023-11-19T05:57:16;30.77;;;5.47;;
66663;SDS011;59683;51.428;-1.994;2023-11-19T05:59:47;47.50;;;6.20;;
66663;SDS011;59683;51.428;-1.994;2023-11-19T06:02:13;34.20;;;4.73;;
66663;SDS011;59683;51.428;-1.994;2023-11-19T06:04:38;35.10;;;5.63;;
66663;SDS011;59683;51.428;-1.994;2023-11-19T06:07:04;38.20;;;5.30;;
66663;SDS011;59683;51.428;-1.994;2023-11-19T06:09:30;30.83;;;4.43;;
66663;SDS011;59683;51.428;-1.994;2023-11-19T06:11:58;27.23;;;4.67;;
66663;SDS011;59683;51.428;-1.994;2023-11-19T06:14:26;42.67;;;6.00;;
66663;SDS011;59683;51.428;-1.994;2023-11-19T06:16:52;26.93;;;3.33;;
66663;SDS011;59683;51.428;-1.994;2023-11-19T06:19:17;40.57;;;4.20;;
66663;SDS011;59683;51.428;-1.994;2023-11-19T06:21:42;32.57;;;4.23;;
66663;SDS011;59683;51.428;-1.994;2023-11-19T06:24:08;35.47;;;4.30;;
66663;SDS011;59683;51.428;-1.994;2023-11-19T06:26:34;26.30;;;3.30;;
66663;SDS011;59683;51.428;-1.994;2023-11-19T06:28:59;34.97;;;4.13;;
66663;SDS011;59683;51.428;-1.994;2023-11-19T06:31:25;29.93;;;5.00;;
66663;SDS011;59683;51.428;-1.994;2023-11-19T06:33:50;37.33;;;6.10;;
66663;SDS011;59683;51.428;-1.994;2023-11-19T06:36:15;29.10;;;4.50;;
66663;SDS011;59683;51.428;-1.994;2023-11-19T06:38:43;35.97;;;4.53;;
66663;SDS011;59683;51.428;-1.994;2023-11-19T06:41:09;27.67;;;4.20;;
66663;SDS011;59683;51.428;-1.994;2023-11-19T06:43:34;31.40;;;4.67;;
66663;SDS011;59683;51.428;-1.994;2023-11-19T06:46:00;18.77;;;3.57;;
66663;SDS011;59683;51.428;-1.994;2023-11-19T06:48:26;26.80;;;3.87;;
66663;SDS011;59683;51.428;-1.994;2023-11-19T06:50:52;21.43;;;4.40;;
66663;SDS011;59683;51.428;-1.994;2023-11-19T06:53:17;16.67;;;3.10;;
66663;SDS011;59683;51.428;-1.994;2023-11-19T06:55:42;16.93;;;3.00;;
66663;SDS011;59683;51.428;-1.994;2023-11-19T06:58:08;23.37;;;3.50;;
66663;SDS011;59683;51.428;-1.994;2023-11-19T07:00:33;22.83;;;3.43;;
66663;SDS011;59683;51.428;-1.994;2023-11-19T07:03:00;20.13;;;3.23;;
66663;SDS011;59683;51.428;-1.994;2023-11-19T07:05:26;23.27;;;3.77;;
66663;SDS011;59683;51.428;-1.994;2023-11-19T07:07:51;27.63;;;3.97;;
66663;SDS011;59683;51.428;-1.994;2023-11-19T07:10:17;30.23;;;3.53;;
66663;SDS011;59683;51.428;-1.994;2023-11-19T07:12:42;26.67;;;5.27;;
66663;SDS011;59683;51.428;-1.994;2023-11-19T07:15:07;20.40;;;4.47;;
66663;SDS011;59683;51.428;-1.994;2023-11-19T07:17:38;23.90;;;3.40;;
66663;SDS011;59683;51.428;-1.994;2023-11-19T07:20:05;24.03;;;4.53;;
66663;SDS011;59683;51.428;-1.994;2023-11-19T07:22:30;21.80;;;3.13;;
66663;SDS011;59683;51.428;-1.994;2023-11-19T07:24:56;25.30;;;4.13;;
66663;SDS011;59683;51.428;-1.994;2023-11-19T07:27:21;32.27;;;4.10;;
66663;SDS011;59683;51.428;-1.994;2023-11-19T07:29:49;29.53;;;4.10;;
66663;SDS011;59683;51.428;-1.994;2023-11-19T07:32:14;22.87;;;3.27;;
66663;SDS011;59683;51.428;-1.994;2023-11-19T07:34:40;23.00;;;3.40;;
66663;SDS011;59683;51.428;-1.994;2023-11-19T07:37:05;28.17;;;4.87;;
66663;SDS011;59683;51.428;-1.994;2023-11-19T07:39:30;21.87;;;4.03;;
66663;SDS011;59683;51.428;-1.994;2023-11-19T07:41:56;20.33;;;4.33;;
66663;SDS011;59683;51.428;-1.994;2023-11-19T07:44:22;22.67;;;2.90;;
66663;SDS011;59683;51.428;-1.994;2023-11-19T07:46:47;26.57;;;4.77;;
66663;SDS011;59683;51.428;-1.994;2023-11-19T07:49:13;19.30;;;2.80;;
66663;SDS011;59683;51.428;-1.994;2023-11-19T07:51:38;27.67;;;4.43;;
66663;SDS011;59683;51.428;-1.994;2023-11-19T07:54:04;21.73;;;2.73;;
66663;SDS011;59683;51.428;-1.994;2023-11-19T07:56:30;27.50;;;3.97;;
66663;SDS011;59683;51.428;-1.994;2023-11-19T07:58:55;21.17;;;3.50;;
66663;SDS011;59683;51.428;-1.994;2023-11-19T08:01:21;27.30;;;4.10;;
66663;SDS011;59683;51.428;-1.994;2023-11-19T08:03:48;25.50;;;4.30;;
66663;SDS011;59683;51.428;-1.994;2023-11-19T08:06:14;26.27;;;3.87;;
66663;SDS011;59683;51.428;-1.994;2023-11-19T08:08:39;24.27;;;4.83;;
66663;SDS011;59683;51.428;-1.994;2023-11-19T08:11:05;21.53;;;3.43;;
66663;SDS011;59683;51.428;-1.994;2023-11-19T08:13:30;26.60;;;3.43;;
66663;SDS011;59683;51.428;-1.994;2023-11-19T08:15:56;24.70;;;4.93;;
66663;SDS011;59683;51.428;-1.994;2023-11-19T08:18:23;28.30;;;4.37;;
66663;SDS011;59683;51.428;-1.994;2023-11-19T08:20:49;21.80;;;2.83;;
66663;SDS011;59683;51.428;-1.994;2023-11-19T08:23:18;28.00;;;3.70;;
66663;SDS011;59683;51.428;-1.994;2023-11-19T08:25:43;23.83;;;3.93;;
66663;SDS011;59683;51.428;-1.994;2023-11-19T08:28:09;31.57;;;4.83;;
66663;SDS011;59683;51.428;-1.994;2023-11-19T08:30:35;38.87;;;4.37;;
66663;SDS011;59683;51.428;-1.994;2023-11-19T08:33:00;25.80;;;4.77;;
66663;SDS011;59683;51.428;-1.994;2023-11-19T08:35:28;25.27;;;3.20;;
66663;SDS011;59683;51.428;-1.994;2023-11-19T08:37:54;24.53;;;4.47;;
66663;SDS011;59683;51.428;-1.994;2023-11-19T08:40:19;34.33;;;4.90;;
66663;SDS011;59683;51.428;-1.994;2023-11-19T08:42:45;27.77;;;5.20;;
66663;SDS011;59683;51.428;-1.994;2023-11-19T08:45:11;15.43;;;2.97;;
66663;SDS011;59683;51.428;-1.994;2023-11-19T08:47:36;26.00;;;4.83;;
66663;SDS011;59683;51.428;-1.994;2023-11-19T08:50:02;25.03;;;5.13;;
66663;SDS011;59683;51.428;-1.994;2023-11-19T08:52:29;30.07;;;4.20;;
66663;SDS011;59683;51.428;-1.994;2023-11-19T08:54:55;18.40;;;3.47;;
66663;SDS011;59683;51.428;-1.994;2023-11-19T08:57:21;28.73;;;3.73;;
66663;SDS011;59683;51.428;-1.994;2023-11-19T08:59:46;21.30;;;4.33;;
66663;SDS011;59683;51.428;-1.994;2023-11-19T09:02:11;24.20;;;3.90;;
66663;SDS011;59683;51.428;-1.994;2023-11-19T09:04:37;23.60;;;3.77;;
66663;SDS011;59683;51.428;-1.994;2023-11-19T09:07:02;29.33;;;4.30;;
66663;SDS011;59683;51.428;-1.994;2023-11-19T09:09:28;19.30;;;3.70;;
66663;SDS011;59683;51.428;-1.994;2023-11-19T09:11:54;28.63;;;3.97;;
66663;SDS011;59683;51.428;-1.994;2023-11-19T09:14:19;31.43;;;4.70;;
66663;SDS011;59683;51.428;-1.994;2023-11-19T09:16:49;24.55;;;4.38;;
66663;SDS011;59683;51.428;-1.994;2023-11-19T09:19:14;30.80;;;5.87;;
66663;SDS011;59683;51.428;-1.994;2023-11-19T09:21:40;20.10;;;3.90;;
66663;SDS011;59683;51.428;-1.994;2023-11-19T09:24:05;26.07;;;4.77;;
66663;SDS011;59683;51.428;-1.994;2023-11-19T09:26:32;25.47;;;4.00;;
66663;SDS011;59683;51.428;-1.994;2023-11-19T09:28:58;27.27;;;4.13;;
66663;SDS011;59683;51.428;-1.994;2023-11-19T09:31:23;29.37;;;3.23;;
66663;SDS011;59683;51.428;-1.994;2023-11-19T09:33:49;27.67;;;3.93;;
66663;SDS011;59683;51.428;-1.994;2023-11-19T09:36:14;27.30;;;4.43;;
66663;SDS011;59683;51.428;-1.994;2023-11-19T09:38:41;21.33;;;4.13;;
66663;SDS011;59683;51.428;-1.994;2023-11-19T09:41:09;23.67;;;3.60;;
66663;SDS011;59683;51.428;-1.994;2023-11-19T09:43:38;16.57;;;2.93;;
66663;SDS011;59683;51.428;-1.994;2023-11-19T09:46:09;23.97;;;3.63;;
66663;SDS011;59683;51.428;-1.994;2023-11-19T09:48:38;25.37;;;3.60;;
66663;SDS011;59683;51.428;-1.994;2023-11-19T09:51:07;19.00;;;3.40;;
66663;SDS011;59683;51.428;-1.994;2023-11-19T09:53:34;18.03;;;3.07;;
66663;SDS011;59683;51.428;-1.994;2023-11-19T09:56:01;13.60;;;2.83;;
66663;SDS011;59683;51.428;-1.994;2023-11-19T09:58:30;14.23;;;2.67;;
66663;SDS011;59683;51.428;-1.994;2023-11-19T10:00:59;15.30;;;2.77;;
66663;SDS011;59683;51.428;-1.994;2023-11-19T10:03:27;21.33;;;3.90;;
66663;SDS011;59683;51.428;-1.994;2023-11-19T10:05:57;10.75;;;2.20;;
66663;SDS011;59683;51.428;-1.994;2023-11-19T10:08:23;13.43;;;2.30;;
66663;SDS011;59683;51.428;-1.994;2023-11-19T10:10:48;14.03;;;1.97;;
66663;SDS011;59683;51.428;-1.994;2023-11-19T10:13:14;20.07;;;4.00;;
66663;SDS011;59683;51.428;-1.994;2023-11-19T10:15:39;19.10;;;1.97;;
66663;SDS011;59683;51.428;-1.994;2023-11-19T10:18:05;12.03;;;2.00;;
66663;SDS011;59683;51.428;-1.994;2023-11-19T10:20:37;14.50;;;2.53;;
66663;SDS011;59683;51.428;-1.994;2023-11-19T10:23:05;16.30;;;3.40;;
66663;SDS011;59683;51.428;-1.994;2023-11-19T10:25:30;18.57;;;2.73;;
66663;SDS011;59683;51.428;-1.994;2023-11-19T10:27:57;15.17;;;3.53;;
66663;SDS011;59683;51.428;-1.994;2023-11-19T10:30:27;16.87;;;2.60;;
66663;SDS011;59683;51.428;-1.994;2023-11-19T10:33:07;17.33;;;2.67;;
66663;SDS011;59683;51.428;-1.994;2023-11-19T10:35:36;15.23;;;3.30;;
66663;SDS011;59683;51.428;-1.994;2023-11-19T10:38:17;15.57;;;3.03;;
66663;SDS011;59683;51.428;-1.994;2023-11-19T10:40:42;15.27;;;2.97;;
66663;SDS011;59683;51.428;-1.994;2023-11-19T10:43:08;17.30;;;2.77;;
66663;SDS011;59683;51.428;-1.994;2023-11-19T10:45:37;13.60;;;2.40;;
66663;SDS011;59683;51.428;-1.994;2023-11-19T10:48:04;15.40;;;3.08;;
66663;SDS011;59683;51.428;-1.994;2023-11-19T10:50:33;24.30;;;4.87;;
66663;SDS011;59683;51.428;-1.994;2023-11-19T10:53:01;16.03;;;1.87;;
66663;SDS011;59683;51.428;-1.994;2023-11-19T10:55:28;17.73;;;2.20;;
66663;SDS011;59683;51.428;-1.994;2023-11-19T10:58:00;12.17;;;2.43;;
66663;SDS011;59683;51.428;-1.994;2023-11-19T11:03:02;12.07;;;1.60;;
66663;SDS011;59683;51.428;-1.994;2023-11-19T11:05:35;7.97;;;2.33;;
66663;SDS011;59683;51.428;-1.994;2023-11-19T11:08:03;9.27;;;1.80;;
66663;SDS011;59683;51.428;-1.994;2023-11-19T11:10:31;9.93;;;1.70;;
66663;SDS011;59683;51.428;-1.994;2023-11-19T11:13:02;12.32;;;2.00;;
66663;SDS011;59683;51.428;-1.994;2023-11-19T11:15:28;10.10;;;1.57;;
66663;SDS011;59683;51.428;-1.994;2023-11-19T11:17:57;12.43;;;1.50;;
66663;SDS011;59683;51.428;-1.994;2023-11-19T11:20:31;12.63;;;1.63;;
66663;SDS011;59683;51.428;-1.994;2023-11-19T11:36:54;12.33;;;1.60;;
66663;SDS011;59683;51.428;-1.994;2023-11-19T11:39:32;9.10;;;1.50;;
66663;SDS011;59683;51.428;-1.994;2023-11-19T11:55:27;11.98;;;2.20;;
66663;SDS011;59683;51.428;-1.994;2023-11-19T11:57:56;12.20;;;1.93;;
66663;SDS011;59683;51.428;-1.994;2023-11-19T12:00:43;14.27;;;2.47;;
66663;SDS011;59683;51.428;-1.994;2023-11-19T12:03:08;9.03;;;1.80;;
66663;SDS011;59683;51.428;-1.994;2023-11-19T12:05:40;13.90;;;2.90;;
66663;SDS011;59683;51.428;-1.994;2023-11-19T12:08:10;9.83;;;2.23;;
66663;SDS011;59683;51.428;-1.994;2023-11-19T12:10:37;13.30;;;2.33;;
66663;SDS011;59683;51.428;-1.994;2023-11-19T12:13:09;10.70;;;1.67;;
66663;SDS011;59683;51.428;-1.994;2023-11-19T12:18:20;7.47;;;1.87;;
66663;SDS011;59683;51.428;-1.994;2023-11-19T12:20:56;8.63;;;1.33;;
66663;SDS011;59683;51.428;-1.994;2023-11-19T12:23:25;6.13;;;0.97;;
66663;SDS011;59683;51.428;-1.994;2023-11-19T12:25:51;4.47;;;0.70;;
66663;SDS011;59683;51.428;-1.994;2023-11-19T12:28:17;6.83;;;1.00;;
66663;SDS011;59683;51.428;-1.994;2023-11-19T12:30:43;11.30;;;1.50;;
66663;SDS011;59683;51.428;-1.994;2023-11-19T12:33:12;9.60;;;1.27;;
66663;SDS011;59683;51.428;-1.994;2023-11-19T12:35:39;8.30;;;1.50;;
66663;SDS011;59683;51.428;-1.994;2023-11-19T12:38:05;5.33;;;1.00;;
66663;SDS011;59683;51.428;-1.994;2023-11-19T12:40:30;9.20;;;1.10;;
66663;SDS011;59683;51.428;-1.994;2023-11-19T12:42:56;6.13;;;1.30;;
66663;SDS011;59683;51.428;-1.994;2023-11-19T12:45:22;8.40;;;1.60;;
66663;SDS011;59683;51.428;-1.994;2023-11-19T12:47:49;8.63;;;1.40;;
66663;SDS011;59683;51.428;-1.994;2023-11-19T12:50:16;5.17;;;1.67;;
66663;SDS011;59683;51.428;-1.994;2023-11-19T12:52:57;6.73;;;0.70;;
66663;SDS011;59683;51.428;-1.994;2023-11-19T12:55:32;4.03;;;0.73;;
66663;SDS011;59683;51.428;-1.994;2023-11-19T12:57:57;6.93;;;1.30;;
66663;SDS011;59683;51.428;-1.994;2023-11-19T13:00:24;5.47;;;0.77;;
66663;SDS011;59683;51.428;-1.994;2023-11-19T13:02:52;2.60;;;0.50;;
66663;SDS011;59683;51.428;-1.994;2023-11-19T13:08:04;3.03;;;0.70;;
66663;SDS011;59683;51.428;-1.994;2023-11-19T13:10:31;3.97;;;0.70;;
66663;SDS011;59683;51.428;-1.994;2023-11-19T13:15:31;2.80;;;0.67;;
66663;SDS011;59683;51.428;-1.994;2023-11-19T13:17:57;3.57;;;0.73;;
66663;SDS011;59683;51.428;-1.994;2023-11-19T13:20:22;2.57;;;0.70;;
66663;SDS011;59683;51.428;-1.994;2023-11-19T13:23:21;3.07;;;0.77;;
66663;SDS011;59683;51.428;-1.994;2023-11-19T13:25:40;1.57;;;0.70;;
66663;SDS011;59683;51.428;-1.994;2023-11-19T13:28:05;4.30;;;0.70;;
66663;SDS011;59683;51.428;-1.994;2023-11-19T13:30:31;3.40;;;0.60;;
66663;SDS011;59683;51.428;-1.994;2023-11-19T13:32:56;4.43;;;1.20;;
66663;SDS011;59683;51.428;-1.994;2023-11-19T13:35:22;8.10;;;1.30;;
66663;SDS011;59683;51.428;-1.994;2023-11-19T13:37:47;5.73;;;0.90;;
66663;SDS011;59683;51.428;-1.994;2023-11-19T13:40:13;7.90;;;1.33;;
66663;SDS011;59683;51.428;-1.994;2023-11-19T13:42:40;4.07;;;0.70;;
66663;SDS011;59683;51.428;-1.994;2023-11-19T13:45:10;5.67;;;0.90;;
66663;SDS011;59683;51.428;-1.994;2023-11-19T13:47:36;5.53;;;0.70;;
66663;SDS011;59683;51.428;-1.994;2023-11-19T13:50:09;3.53;;;0.90;;
66663;SDS011;59683;51.428;-1.994;2023-11-19T13:52:37;6.57;;;0.98;;
66663;SDS011;59683;51.428;-1.994;2023-11-19T13:55:04;11.47;;;1.30;;
66663;SDS011;59683;51.428;-1.994;2023-11-19T13:57:31;5.97;;;1.20;;
66663;SDS011;59683;51.428;-1.994;2023-11-19T13:59:57;11.20;;;1.20;;
66663;SDS011;59683;51.428;-1.994;2023-11-19T14:02:22;8.43;;;1.30;;
66663;SDS011;59683;51.428;-1.994;2023-11-19T14:04:48;5.83;;;1.10;;
66663;SDS011;59683;51.428;-1.994;2023-11-19T14:07:13;8.80;;;1.23;;
66663;SDS011;59683;51.428;-1.994;2023-11-19T14:09:41;10.77;;;2.40;;
66663;SDS011;59683;51.428;-1.994;2023-11-19T14:12:07;12.10;;;2.80;;
66663;SDS011;59683;51.428;-1.994;2023-11-19T14:14:34;9.00;;;1.00;;
66663;SDS011;59683;51.428;-1.994;2023-11-19T14:17:01;9.17;;;1.67;;
66663;SDS011;59683;51.428;-1.994;2023-11-19T14:19:28;17.50;;;2.33;;
66663;SDS011;59683;51.428;-1.994;2023-11-19T14:21:53;11.67;;;2.40;;
66663;SDS011;59683;51.428;-1.994;2023-11-19T14:24:19;12.93;;;2.60;;
66663;SDS011;59683;51.428;-1.994;2023-11-19T14:26:45;12.33;;;2.87;;
66663;SDS011;59683;51.428;-1.994;2023-11-19T14:29:12;10.60;;;1.60;;
66663;SDS011;59683;51.428;-1.994;2023-11-19T14:31:37;14.00;;;2.80;;
66663;SDS011;59683;51.428;-1.994;2023-11-19T14:34:03;6.80;;;1.20;;
66663;SDS011;59683;51.428;-1.994;2023-11-19T14:36:28;9.40;;;1.37;;
66663;SDS011;59683;51.428;-1.994;2023-11-19T14:38:54;13.77;;;1.67;;
66663;SDS011;59683;51.428;-1.994;2023-11-19T14:41:19;13.53;;;2.00;;
66663;SDS011;59683;51.428;-1.994;2023-11-19T14:43:45;7.93;;;1.63;;
66663;SDS011;59683;51.428;-1.994;2023-11-19T14:46:10;8.67;;;1.10;;
66663;SDS011;59683;51.428;-1.994;2023-11-19T14:48:35;7.43;;;1.47;;
66663;SDS011;59683;51.428;-1.994;2023-11-19T14:51:01;7.07;;;1.30;;
66663;SDS011;59683;51.428;-1.994;2023-11-19T14:53:28;12.13;;;3.50;;
66663;SDS011;59683;51.428;-1.994;2023-11-19T14:55:53;7.13;;;1.17;;
66663;SDS011;59683;51.428;-1.994;2023-11-19T14:58:19;8.77;;;2.00;;